createdAt,value
2022-08-16T00:00:38.604Z,93.76
2022-08-16T00:05:48.310Z,94.08
2022-08-16T00:10:50.463Z,94.19
2022-08-16T00:15:54.312Z,94.67
2022-08-16T00:20:55.599Z,94.77
2022-08-16T00:26:13.608Z,95.12
2022-08-16T00:31:59.623Z,95.86
2022-08-16T00:37:03.562Z,96.27
2022-08-16T00:42:05.314Z,96.44
2022-08-16T00:47:16.181Z,95.89
2022-08-16T00:52:30.273Z,96.07
2022-08-16T00:57:59.067Z,95.83
2022-08-16T01:03:07.353Z,96.25
2022-08-16T01:08:35.388Z,96.81
2022-08-16T01:13:39.274Z,97.11
2022-08-16T01:18:44.458Z,97.32
2022-08-16T01:24:02.497Z,95.15
2022-08-16T01:29:09.934Z,96.12
2022-08-16T01:34:24.882Z,96.22
2022-08-16T01:39:28.634Z,97.95
2022-08-16T01:44:37.271Z,97.42
2022-08-16T01:49:45.703Z,98.57
2022-08-16T01:55:53.976Z,99.76
2022-08-16T02:00:57.226Z,99.43
2022-08-16T02:05:59.008Z,100.00
2022-08-16T02:11:07.871Z,100.00
2022-08-16T02:16:18.839Z,100.00
2022-08-16T02:21:31.544Z,100.00
2022-08-16T02:26:34.240Z,100.00
2022-08-16T02:32:03.157Z,100.00
2022-08-16T02:37:05.165Z,100.00
2022-08-16T02:42:07.790Z,100.00
2022-08-16T02:47:09.247Z,100.00
2022-08-16T02:52:11.404Z,99.86
2022-08-16T02:57:27.019Z,99.27
2022-08-16T03:02:32.045Z,100.00
2022-08-16T03:07:37.085Z,100.00
2022-08-16T03:12:55.269Z,100.00
2022-08-16T03:17:58.037Z,98.85
2022-08-16T03:23:01.863Z,100.00
2022-08-16T03:28:05.217Z,100.00
2022-08-16T03:33:08.926Z,99.86
2022-08-16T03:38:34.243Z,100.00
2022-08-16T03:43:51.411Z,99.96
2022-08-16T03:48:54.948Z,100.00
2022-08-16T03:54:00.900Z,100.00
2022-08-16T03:59:02.870Z,100.00
2022-08-16T04:04:09.654Z,100.00
2022-08-16T04:09:19.606Z,100.00
2022-08-16T04:14:32.770Z,100.00
2022-08-16T04:19:35.962Z,100.00
2022-08-16T04:24:36.961Z,100.00
2022-08-16T04:29:43.939Z,100.00
2022-08-16T04:34:48.238Z,100.00
2022-08-16T04:39:55.820Z,100.00
2022-08-16T04:44:58.713Z,100.00
2022-08-16T04:50:15.652Z,100.00
2022-08-16T04:55:37.870Z,100.00
2022-08-16T05:00:39.798Z,100.00
2022-08-16T05:05:59.184Z,100.00
2022-08-16T05:11:09.347Z,100.00
2022-08-16T05:16:16.472Z,100.00
2022-08-16T05:21:22.353Z,99.87
2022-08-16T05:26:29.555Z,99.67
2022-08-16T05:31:31.010Z,98.97
2022-08-16T05:36:36.708Z,98.27
2022-08-16T05:41:45.119Z,96.79
2022-08-16T05:46:47.758Z,96.62
2022-08-16T05:51:56.235Z,93.80
2022-08-16T05:56:57.831Z,92.59
2022-08-16T06:02:06.159Z,92.36
2022-08-16T06:07:09.702Z,92.29
2022-08-16T06:12:31.136Z,90.79
2022-08-16T06:17:41.462Z,91.68
2022-08-16T06:22:47.590Z,90.49
2022-08-16T06:28:01.160Z,89.36
2022-08-16T06:33:12.324Z,87.98
2022-08-16T06:38:32.825Z,88.16
2022-08-16T06:43:39.649Z,88.37
2022-08-16T06:48:51.151Z,89.49
2022-08-16T06:53:53.727Z,89.94
2022-08-16T06:58:56.834Z,88.78
2022-08-16T07:04:01.244Z,85.29
2022-08-16T07:09:09.792Z,83.77
2022-08-16T07:14:24.953Z,84.30
2022-08-16T07:20:01.587Z,83.13
2022-08-16T07:25:14.610Z,82.54
2022-08-16T07:30:39.320Z,84.09
2022-08-16T07:35:55.727Z,82.76
2022-08-16T07:41:01.604Z,80.89
2022-08-16T07:46:05.017Z,78.27
2022-08-16T07:51:43.143Z,78.18
2022-08-16T07:56:45.229Z,79.45
2022-08-16T08:01:46.290Z,79.22
2022-08-16T08:06:50.966Z,77.38
2022-08-16T08:12:00.748Z,76.36
2022-08-16T08:17:06.744Z,74.97
2022-08-16T08:22:10.176Z,72.43
2022-08-16T08:27:26.816Z,72.66
2022-08-16T08:32:57.478Z,72.47
2022-08-16T08:38:08.399Z,72.50
2022-08-16T08:43:17.931Z,73.46
2022-08-16T08:48:33.791Z,72.37
2022-08-16T08:53:37.885Z,73.00
2022-08-16T08:58:39.771Z,71.41
2022-08-16T09:04:06.191Z,70.61
2022-08-16T09:09:08.938Z,67.39
2022-08-16T09:14:24.265Z,68.40
2022-08-16T09:19:33.034Z,66.50
2022-08-16T09:24:51.770Z,65.56
2022-08-16T09:30:00.083Z,65.14
2022-08-16T09:35:05.106Z,64.17
2022-08-16T09:40:31.646Z,64.02
2022-08-16T09:45:38.285Z,60.20
2022-08-16T09:50:42.535Z,59.91
2022-08-16T09:55:49.448Z,59.89
2022-08-16T10:00:52.505Z,59.29
2022-08-16T10:05:53.338Z,56.62
2022-08-16T10:11:13.112Z,56.20
2022-08-16T10:21:16.139Z,53.16
2022-08-16T10:27:16.797Z,51.41
2022-08-16T10:32:23.587Z,50.01
2022-08-16T10:37:35.697Z,49.30
2022-08-16T10:42:37.662Z,45.98
2022-08-16T10:47:41.874Z,49.56
2022-08-16T10:52:44.384Z,48.71
2022-08-16T10:57:54.154Z,47.00
2022-08-16T11:03:00.730Z,45.90
2022-08-16T11:08:06.981Z,44.61
2022-08-16T11:19:03.130Z,43.05
2022-08-16T11:24:40.169Z,41.93
2022-08-16T11:29:44.680Z,41.59
2022-08-16T11:35:10.952Z,41.68
2022-08-16T11:40:32.363Z,40.06
2022-08-16T11:45:35.347Z,41.02
2022-08-16T11:50:38.075Z,39.22
2022-08-16T11:55:39.291Z,38.27
2022-08-16T12:00:51.696Z,37.26
2022-08-16T12:05:54.482Z,37.34
2022-08-16T12:10:59.219Z,37.35
2022-08-16T12:16:01.542Z,38.12
2022-08-16T12:21:03.851Z,38.32
2022-08-16T12:26:10.427Z,38.56
2022-08-16T12:31:12.048Z,39.67
2022-08-16T12:36:13.371Z,39.59
2022-08-16T12:41:14.939Z,39.39
2022-08-16T12:46:25.917Z,39.28
2022-08-16T12:51:57.951Z,38.25
2022-08-16T12:57:01.272Z,37.83
2022-08-16T13:02:04.459Z,38.51
2022-08-16T13:07:08.444Z,37.87
2022-08-16T13:12:23.401Z,37.41
2022-08-16T13:17:29.517Z,36.59
2022-08-16T13:22:30.970Z,35.96
2022-08-16T13:28:01.589Z,36.25
2022-08-16T13:33:12.283Z,35.75
2022-08-16T13:38:24.287Z,34.87
2022-08-16T13:43:27.776Z,34.50
2022-08-16T13:48:43.019Z,35.23
2022-08-16T13:53:54.506Z,34.06
2022-08-16T13:59:01.988Z,34.06
2022-08-16T14:04:04.581Z,33.22
2022-08-16T14:09:06.706Z,33.04
2022-08-16T14:14:08.054Z,33.55
2022-08-16T14:19:17.591Z,34.00
2022-08-16T14:24:30.031Z,32.96
2022-08-16T14:29:32.126Z,32.77
2022-08-16T14:34:36.161Z,31.58
2022-08-16T14:39:39.431Z,32.32
2022-08-16T14:44:41.230Z,33.31
2022-08-16T14:49:43.307Z,33.08
2022-08-16T14:54:45.010Z,34.16
2022-08-16T14:59:46.195Z,34.21
2022-08-16T15:04:48.465Z,34.33
2022-08-16T15:10:00.654Z,34.81
2022-08-16T15:15:13.191Z,35.31
2022-08-16T15:20:19.096Z,35.52
2022-08-16T15:25:27.639Z,36.65
2022-08-16T15:31:00.609Z,35.39
2022-08-16T15:36:04.611Z,35.21
2022-08-16T15:41:06.417Z,35.03
2022-08-16T15:46:35.821Z,34.26
2022-08-16T15:51:57.469Z,34.51
2022-08-16T15:57:11.431Z,35.40
2022-08-16T16:02:13.150Z,34.99
2022-08-16T16:07:15.642Z,35.58
2022-08-16T16:12:51.527Z,34.68
2022-08-16T16:17:56.290Z,35.27
2022-08-16T16:23:00.156Z,35.31
2022-08-16T16:28:02.071Z,35.96
2022-08-16T16:33:03.306Z,35.98
2022-08-16T16:38:08.138Z,35.48
2022-08-16T16:43:10.728Z,36.31
2022-08-16T16:48:15.029Z,36.07
2022-08-16T16:53:18.879Z,36.12
2022-08-16T16:58:43.473Z,36.40
2022-08-16T17:03:44.708Z,36.59
2022-08-16T17:08:55.124Z,36.26
2022-08-16T17:13:56.071Z,36.55
2022-08-16T17:19:17.347Z,37.08
2022-08-16T17:24:24.504Z,37.18
2022-08-16T17:29:45.888Z,37.31
2022-08-16T17:34:50.781Z,38.31
2022-08-16T17:40:00.844Z,38.56
2022-08-16T17:45:21.982Z,39.28
2022-08-16T17:50:23.787Z,39.82
2022-08-16T17:55:34.006Z,40.40
2022-08-16T18:00:36.830Z,40.80
2022-08-16T18:05:38.085Z,40.92
2022-08-16T18:10:38.960Z,41.43
2022-08-16T18:15:41.424Z,42.34
2022-08-16T18:21:01.179Z,43.12
2022-08-16T18:26:04.836Z,43.54
2022-08-16T18:31:07.305Z,44.02
2022-08-16T18:36:20.525Z,44.41
2022-08-16T18:41:25.554Z,44.59
2022-08-16T18:46:26.531Z,45.43
2022-08-16T18:51:27.458Z,46.15
2022-08-16T18:56:56.155Z,46.75
2022-08-16T19:02:04.516Z,47.34
2022-08-16T19:07:06.542Z,48.37
2022-08-16T19:12:07.958Z,49.68
2022-08-16T19:17:10.505Z,49.51
2022-08-16T19:22:11.283Z,50.23
2022-08-16T19:27:13.257Z,50.02
2022-08-16T19:32:26.414Z,51.11
2022-08-16T19:37:27.303Z,51.66
2022-08-16T19:42:28.850Z,52.51
2022-08-16T19:47:30.982Z,53.26
2022-08-16T19:52:32.510Z,53.51
2022-08-16T19:57:35.080Z,54.19
2022-08-16T20:02:42.335Z,54.59
2022-08-16T20:07:43.634Z,55.23
2022-08-16T20:12:58.331Z,56.09
2022-08-16T20:18:03.932Z,57.65
2022-08-16T20:23:25.102Z,58.29
2022-08-16T20:28:50.989Z,59.04
2022-08-16T20:33:55.320Z,59.73
2022-08-16T20:38:57.139Z,59.53
2022-08-16T20:43:58.123Z,59.79
2022-08-16T20:49:00.139Z,60.02
2022-08-16T20:54:01.399Z,60.56
2022-08-16T20:59:02.502Z,60.78
2022-08-16T21:04:03.767Z,61.48
2022-08-16T21:09:04.694Z,61.62
2022-08-16T21:14:10.129Z,62.01
2022-08-16T21:19:10.960Z,62.15
2022-08-16T21:24:12.441Z,63.05
2022-08-16T21:29:16.257Z,63.28
2022-08-16T21:34:19.147Z,63.65
2022-08-16T21:39:19.981Z,63.88
2022-08-16T21:44:21.140Z,64.86
2022-08-16T21:49:21.977Z,64.95
2022-08-16T21:54:23.010Z,65.36
2022-08-16T21:59:24.033Z,65.72
2022-08-16T22:04:37.454Z,66.16
2022-08-16T22:09:39.949Z,66.25
2022-08-16T22:14:40.773Z,66.41
2022-08-16T22:19:42.036Z,66.14
2022-08-16T22:24:42.913Z,65.84
2022-08-16T22:29:43.882Z,65.99
2022-08-16T22:34:44.718Z,67.81
2022-08-16T22:39:45.635Z,68.31
2022-08-16T22:44:46.817Z,68.40
2022-08-16T22:49:48.024Z,68.49
2022-08-16T22:54:49.274Z,67.95
2022-08-16T22:59:53.016Z,68.73
2022-08-16T23:04:55.630Z,69.05
2022-08-16T23:09:56.445Z,68.57
2022-08-16T23:15:02.027Z,68.62
2022-08-16T23:20:03.677Z,68.94
2022-08-16T23:25:05.116Z,68.53
2022-08-16T23:30:07.304Z,67.65
2022-08-16T23:35:08.298Z,67.75
2022-08-16T23:40:13.123Z,67.79
2022-08-16T23:45:14.585Z,68.14
2022-08-16T23:50:16.530Z,68.77
2022-08-16T23:55:17.605Z,68.86
